Atlanta, MI

8:14 AM EST on December 25, 2014 (GMT -0500)
Moon Lake | Change Station
CLOSE
Current Station
Personal Weather Station
Location: Lewiston, MI
Elevation: 1240 ft
Nearby Weather Stations

Elev 1240 ft 44.84 °N, 84.26 °W | Updated 3 minutes ago

Overcast
Overcast
32.0 °F
Feels Like 32 °F
N
0.7
Wind Variable Wind from SSW
Gusts 0.7 mph

Today
High -- | Low -- °F
--% Chance of Precip.
Yesterday
High -- | Low -- °F
Precip. -- in
8:13 AM 5:00 PM
Waxing Crescent, 16% visible
Pressure 29.65 in
Visibility 9.0 miles
Clouds Mostly Cloudy 1400 ft
Overcast 2200 ft
Windchill 32 °F
Dew Point 30 °F
Humidity 93%
Rainfall 0.00 in
Snow Depth Not available.
UV 0 out of 12
Pollen .10 out of 12
Air Quality Not available.
Flu Activity Not available.
METAR KGLR 251253Z AUTO 26011G17KT 9SM -SN BKN014 OVC022 00/M02 A2961 RMK AO2 SNE23B45 SLP039 P0000 T00001017

More Conditions Fewer Conditions

Pressure 29.65 in
Visibility 9.0 miles
Clouds Mostly Cloudy 1400 ft
Overcast 2200 ft
Windchill 32 °F
Dew Point 30 °F
Humidity 93%
Rainfall 0.00 in
Snow Depth Not available.
UV 0 out of 12
Pollen .10 out of 12
Air Quality Not available.
Flu Activity Not available.
METAR KGLR 251253Z AUTO 26011G17KT 9SM -SN BKN014 OVC022 00/M02 A2961 RMK AO2 SNE23B45 SLP039 P0000 T00001017

More Conditions Fewer Conditions

Nowcast | as of 8:00 am EST on December 25, 2014

At 9 am...cloudy. Scattered flurries. Temperature 33. West winds 13 mph. At 11 am...cloudy. Scattered flurries. Temperature 34. West winds 13 mph. At 1 PM...cloudy. Temperature 35. West winds 12 mph. At 3 PM...cloudy. Temperature 35. West winds 10 mph.

×

10-Day Weather Forecast

Almanac

Astronomy

Dec. 25, 2014 Rise Set
Actual Time
Civil Twilight
Nautical Twilight
Astronomical Twilight
Moon
Length of Visible Light
Length of Day
Tomorrow will be .
, % of the Moon is Illuminated

Today's Extremes

State Highs State Lows

Community

WunderPhotos

Upload Photos

1,780,268 photos uploaded!

WunderBlogs® & News

Nearby

Air Quality

  Air Quality AQ Index Pollutant
Not available.

Snow Depth

Station Depth Elevation

Earthquake Activity

City Distance Mag. Time & Date
Minimum magnitude displayed is 2.5.

Coastal Water Temperatures

Place Temperature

Nearby Weather Stations